Time;durP1;ratioP1;P1;durP2;ratioP2;P2;SDS_P1;SDS_P2;PMS_P1;PMS_P2;Temp;Humidity;BMP_temperature;BMP_pressure;BME280_temperature;BME280_humidity;BME280_pressure;Samples;Min_cycle;Max_cycle;Signal;HPM_P1;HPM_P2
2022/08/02 00:01:07;;;;;;;2.97;1.17;;;;;;;24.93;37.94;100800.75;5053687;28;20496;-66
2022/08/02 00:03:33;;;;;;;2.63;1.13;;;;;;;24.92;38.03;100804.53;5049144;28;20803;-66
2022/08/02 00:05:58;;;;;;;2.80;1.17;;;;;;;24.89;37.95;100810.50;5047650;28;20397;-66
2022/08/02 00:08:24;;;;;;;2.78;1.13;;;;;;;24.88;38.03;100811.56;5045544;28;20420;-66
2022/08/02 00:10:49;;;;;;;2.97;1.10;;;;;;;24.85;37.97;100809.38;5056697;28;20506;-66
2022/08/02 00:13:15;;;;;;;2.03;1.10;;;;;;;24.85;38.27;100809.38;5046928;28;20504;-66
2022/08/02 00:15:40;;;;;;;1.77;1.20;;;;;;;24.83;38.31;100808.81;5046591;28;20482;-66
2022/08/02 00:18:06;;;;;;;2.37;1.10;;;;;;;24.79;38.37;100808.53;5046379;28;20891;-66
2022/08/02 00:20:31;;;;;;;2.60;1.20;;;;;;;24.76;38.37;100814.50;5049916;28;20389;-66
2022/08/02 00:22:57;;;;;;;3.30;1.30;;;;;;;24.70;38.45;100802.78;5048856;28;20431;-66
2022/08/02 00:25:22;;;;;;;2.17;1.27;;;;;;;24.66;38.37;100800.88;5046837;28;20386;-65
2022/08/02 00:27:47;;;;;;;2.60;1.20;;;;;;;24.63;38.45;100801.41;5050296;28;20396;-65
2022/08/02 00:30:13;;;;;;;1.45;1.10;;;;;;;24.61;38.42;100807.91;5046259;28;20409;-66
2022/08/02 00:32:39;;;;;;;1.67;1.48;;;;;;;24.61;38.56;100810.63;5046902;28;20479;-66
2022/08/02 00:37:37;;;;;;;2.25;1.30;;;;;;;24.57;38.54;100808.69;5046915;28;20410;-66
2022/08/02 00:40:04;;;;;;;3.70;1.20;;;;;;;24.58;38.64;100816.56;5047087;28;20402;-66
2022/08/02 00:42:29;;;;;;;2.75;1.27;;;;;;;24.58;38.59;100813.84;5047010;28;20401;-66
2022/08/02 00:44:54;;;;;;;5.67;1.37;;;;;;;24.55;38.76;100816.25;5062675;28;20396;-65
2022/08/02 00:47:49;;;;;;;2.70;1.30;;;;;;;24.53;38.53;100813.00;5147441;27;20461;-65
2022/08/02 00:50:14;;;;;;;2.30;1.30;;;;;;;24.50;38.93;100806.16;5127903;28;20418;-65
2022/08/02 00:52:40;;;;;;;4.20;1.20;;;;;;;24.47;38.84;100809.41;5128191;28;20772;-66
2022/08/02 00:55:06;;;;;;;2.55;1.27;;;;;;;24.47;38.75;100805.84;5127619;28;20378;-66
2022/08/02 00:57:31;;;;;;;2.70;1.30;;;;;;;24.48;38.78;100810.22;5127916;28;20880;-66
2022/08/02 00:59:57;;;;;;;2.40;1.20;;;;;;;24.43;38.98;100808.28;5127877;28;20460;-66
2022/08/02 01:02:22;;;;;;;2.10;1.25;;;;;;;24.40;39.06;100817.75;5128023;28;20375;-65
2022/08/02 01:04:48;;;;;;;2.13;1.30;;;;;;;24.38;39.13;100813.66;5128142;28;20375;-66
2022/08/02 01:07:14;;;;;;;1.67;1.37;;;;;;;24.35;39.26;100812.28;5126690;28;20479;-67
2022/08/02 01:09:44;;;;;;;2.00;1.15;;;;;;;24.34;39.35;100810.66;5127453;28;20383;-65
2022/08/02 01:12:10;;;;;;;2.90;1.40;;;;;;;24.34;39.11;100815.25;5127948;28;20383;-65
2022/08/02 01:14:51;;;;;;;3.92;1.42;;;;;;;24.28;39.36;100825.25;5079088;28;20400;-65
2022/08/02 01:19:21;;;;;;;2.08;1.23;;;;;;;24.24;39.23;100824.13;5089894;27;20402;-65
2022/08/02 01:21:52;;;;;;;1.90;1.20;;;;;;;24.21;39.23;100816.50;5086675;28;20401;-65
2022/08/02 01:24:27;;;;;;;2.53;1.20;;;;;;;24.18;39.37;100808.91;5085984;28;20389;-64
2022/08/02 01:27:08;;;;;;;2.13;1.45;;;;;;;24.13;39.49;100817.81;5086765;28;20455;-65
2022/08/02 01:29:38;;;;;;;3.10;1.30;;;;;;;24.04;39.50;100820.16;5086747;28;20741;-65
2022/08/02 01:33:31;;;;;;;3.05;1.35;;;;;;;24.01;39.65;100814.47;5047033;28;20471;-66
2022/08/02 01:35:58;;;;;;;5.55;1.35;;;;;;;23.95;39.90;100813.59;5046404;28;20832;-66
2022/08/02 01:38:52;;;;;;;1.83;1.20;;;;;;;23.94;39.97;100813.84;5046834;28;20400;-66
2022/08/02 01:41:21;;;;;;;1.85;1.30;;;;;;;23.86;40.10;100817.84;5039664;28;20864;-66
2022/08/02 01:43:50;;;;;;;2.97;1.45;;;;;;;23.85;40.28;100816.19;5053415;28;20403;-66
2022/08/02 01:46:17;;;;;;;2.22;1.30;;;;;;;23.79;40.21;100819.91;5044450;28;20814;-66
2022/08/02 01:48:46;;;;;;;2.08;1.30;;;;;;;23.76;40.33;100818.50;5046708;28;20390;-65
2022/08/02 01:51:16;;;;;;;2.10;1.20;;;;;;;23.69;40.41;100817.09;5044531;28;20398;-66
2022/08/02 01:53:44;;;;;;;2.30;1.38;;;;;;;23.70;40.58;100819.53;5046286;28;20382;-66
2022/08/02 01:56:12;;;;;;;2.75;1.80;;;;;;;23.71;40.70;100825.78;5046014;28;21183;-65
2022/08/02 01:58:39;;;;;;;1.92;1.50;;;;;;;23.58;40.84;100819.69;5043845;28;20986;-66
2022/08/02 02:01:08;;;;;;;1.80;1.50;;;;;;;23.56;41.11;100819.13;5045417;28;20393;-66
2022/08/02 02:03:35;;;;;;;3.20;1.42;;;;;;;23.56;41.19;100823.72;5045970;28;20417;-66
2022/08/02 02:06:04;;;;;;;3.13;1.33;;;;;;;23.56;40.79;100824.53;5045668;28;20401;-67
2022/08/02 02:08:37;;;;;;;3.08;1.38;;;;;;;23.54;41.08;100826.69;5045214;28;20417;-65
2022/08/02 02:11:06;;;;;;;2.60;1.50;;;;;;;23.47;41.31;100826.06;5045086;28;20398;-65
2022/08/02 02:13:34;;;;;;;2.33;1.40;;;;;;;23.45;41.20;100829.00;5045481;28;20394;-65
2022/08/02 02:16:03;;;;;;;4.37;1.60;;;;;;;23.36;41.62;100830.53;5045970;28;20390;-66
2022/08/02 02:18:29;;;;;;;1.63;1.52;;;;;;;23.28;41.67;100831.81;5044830;28;20749;-66
2022/08/02 02:20:55;;;;;;;3.15;1.35;;;;;;;23.33;41.33;100824.81;5042938;28;20450;-66
2022/08/02 02:23:21;;;;;;;1.92;1.50;;;;;;;23.20;42.05;100836.84;5045672;28;20389;-65
2022/08/02 02:25:47;;;;;;;2.07;1.50;;;;;;;23.18;41.82;100831.66;5045259;28;20891;-66
2022/08/02 02:28:23;;;;;;;2.30;1.20;;;;;;;23.15;41.96;100824.06;5043416;28;20394;-65
2022/08/02 02:30:52;;;;;;;2.20;1.40;;;;;;;23.08;42.31;100829.66;5043475;28;20397;-66
2022/08/02 02:33:19;;;;;;;2.50;1.30;;;;;;;23.05;42.21;100826.66;5062742;28;20489;-65
2022/08/02 02:36:10;;;;;;;1.40;1.23;;;;;;;23.07;42.23;100835.31;5081073;27;20760;-65
2022/08/02 02:38:37;;;;;;;2.80;1.50;;;;;;;23.14;42.07;100832.41;5085182;28;20398;-65
2022/08/02 02:41:05;;;;;;;2.15;1.50;;;;;;;23.09;42.13;100834.00;5087171;28;20382;-65
2022/08/02 02:43:32;;;;;;;2.05;1.50;;;;;;;23.14;41.86;100833.25;5087508;28;20831;-66
2022/08/02 02:46:00;;;;;;;2.13;1.40;;;;;;;23.18;41.93;100847.09;5079386;28;20459;-65
2022/08/02 02:48:27;;;;;;;1.75;1.30;;;;;;;23.15;42.14;100845.69;5085965;28;20443;-65
2022/08/02 02:50:53;;;;;;;2.58;1.40;;;;;;;23.09;42.22;100839.41;5083880;28;20398;-67
2022/08/02 02:53:20;;;;;;;2.83;1.50;;;;;;;23.12;42.10;100845.38;5085620;28;20461;-66
2022/08/02 02:55:46;;;;;;;4.78;1.50;;;;;;;23.14;41.92;100849.47;5083403;28;20455;-66
2022/08/02 02:58:12;;;;;;;2.85;1.67;;;;;;;23.12;41.97;100850.78;5085092;28;20413;-66
2022/08/02 03:03:23;;;;;;;1.67;1.42;;;;;;;23.02;42.04;100860.34;5084207;28;20524;-67
2022/08/02 03:05:49;;;;;;;3.00;1.43;;;;;;;23.00;42.18;100856.28;5082342;28;20410;-67
2022/08/02 03:08:14;;;;;;;2.30;1.50;;;;;;;22.99;42.10;100852.72;5085656;28;20390;-67
2022/08/02 03:10:42;;;;;;;1.90;1.30;;;;;;;22.93;42.19;100855.63;5085296;28;20758;-66
2022/08/02 03:13:09;;;;;;;4.43;1.40;;;;;;;22.97;42.10;100865.69;5083396;28;20388;-66
2022/08/02 03:15:37;;;;;;;5.35;1.60;;;;;;;22.95;42.19;100864.31;5081833;28;20424;-65
2022/08/02 03:18:02;;;;;;;2.65;1.45;;;;;;;22.92;42.43;100862.91;5082233;28;20417;-66
2022/08/02 03:20:28;;;;;;;3.93;1.40;;;;;;;22.91;42.38;100854.00;5083166;28;20840;-65
2022/08/02 03:22:53;;;;;;;2.42;1.55;;;;;;;22.93;42.45;100864.56;5085539;28;20452;-65
2022/08/02 03:25:19;;;;;;;3.70;1.60;;;;;;;22.96;42.40;100857.81;5083528;28;20398;-65
2022/08/02 03:27:45;;;;;;;1.60;1.40;;;;;;;22.97;42.46;100852.16;5085119;28;20440;-66
2022/08/02 03:30:12;;;;;;;2.47;1.60;;;;;;;22.95;42.55;100856.22;5082004;28;20456;-65
2022/08/02 03:32:40;;;;;;;2.30;1.50;;;;;;;22.94;42.60;100863.50;5083238;28;20416;-65
2022/08/02 03:35:08;;;;;;;3.03;1.53;;;;;;;22.93;42.50;100858.34;5082032;28;20433;-66
2022/08/02 03:37:35;;;;;;;2.95;1.70;;;;;;;22.94;42.36;100854.56;5085011;28;20880;-66
2022/08/02 03:40:05;;;;;;;3.57;1.83;;;;;;;23.06;42.23;100863.41;5082804;28;20410;-66
2022/08/02 03:42:30;;;;;;;2.67;1.52;;;;;;;23.16;42.14;100868.97;5084749;28;20422;-66
2022/08/02 03:44:58;;;;;;;4.00;1.80;;;;;;;23.21;42.03;100870.91;5081723;28;20442;-67
2022/08/02 03:47:26;;;;;;;2.65;1.50;;;;;;;23.21;41.94;100869.03;5069381;28;20455;-66
2022/08/02 03:49:52;;;;;;;3.38;1.50;;;;;;;23.34;41.66;100861.63;5069129;28;20415;-65
2022/08/02 03:52:18;;;;;;;3.30;1.60;;;;;;;23.47;41.45;100848.50;5070176;28;20390;-66
2022/08/02 03:54:44;;;;;;;4.65;2.30;;;;;;;23.66;41.21;100861.72;5069165;28;20524;-66
2022/08/02 03:57:10;;;;;;;4.40;2.57;;;;;;;23.82;40.91;100873.56;5071357;28;20430;-65
2022/08/02 03:59:45;;;;;;;3.60;2.22;;;;;;;23.99;40.83;100873.47;5067623;28;20478;-66
2022/08/02 04:02:12;;;;;;;3.05;1.88;;;;;;;24.16;40.22;100879.56;5068010;28;20399;-67
2022/08/02 04:04:38;;;;;;;3.50;2.30;;;;;;;24.36;39.83;100878.97;5068085;28;20402;-65
2022/08/02 04:07:03;;;;;;;3.90;2.33;;;;;;;24.55;39.73;100884.81;5070298;28;20937;-66
2022/08/02 04:09:29;;;;;;;4.00;2.30;;;;;;;24.76;39.21;100893.13;5068553;28;20482;-66
2022/08/02 04:11:55;;;;;;;4.20;2.10;;;;;;;24.94;39.03;100900.81;5071228;28;20478;-66
2022/08/02 04:14:21;;;;;;;4.97;2.00;;;;;;;25.11;38.48;100894.41;5067739;28;20505;-67
2022/08/02 04:17:01;;;;;;;4.97;1.90;;;;;;;25.20;38.13;100892.81;5068876;28;20434;-66
2022/08/02 04:19:33;;;;;;;3.00;2.03;;;;;;;25.39;38.12;100893.22;5066518;28;20395;-65
2022/08/02 04:22:03;;;;;;;8.02;2.60;;;;;;;25.66;37.88;100900.38;5068483;28;20401;-65
2022/08/02 04:24:38;;;;;;;4.05;2.67;;;;;;;25.74;37.15;100892.53;5065274;28;20440;-66
2022/08/02 04:28:29;;;;;;;3.70;2.33;;;;;;;26.11;36.83;100898.91;5062837;28;20399;-65
2022/08/02 04:30:56;;;;;;;7.13;2.27;;;;;;;26.33;36.42;100896.72;5047958;28;20424;-66
2022/08/02 04:35:21;;;;;;;3.35;2.38;;;;;;;26.82;35.33;100897.28;5080029;27;20467;-67
2022/08/02 04:37:48;;;;;;;3.72;2.22;;;;;;;27.03;34.94;100892.63;5073115;28;20409;-66
2022/08/02 04:40:14;;;;;;;8.10;2.13;;;;;;;27.31;34.87;100910.25;5080874;28;20481;-67
2022/08/02 04:42:40;;;;;;;2.72;1.85;;;;;;;27.58;34.28;100901.69;5064254;28;20402;-66
2022/08/02 04:45:07;;;;;;;7.70;2.78;;;;;;;27.83;33.90;100903.47;5065956;28;20406;-66
2022/08/02 04:47:33;;;;;;;5.65;2.88;;;;;;;28.29;33.34;100909.72;5068791;28;20487;-67
2022/08/02 04:49:59;;;;;;;4.10;2.80;;;;;;;28.92;32.37;100896.09;5070793;28;20479;-66
2022/08/02 04:52:24;;;;;;;2.83;2.10;;;;;;;29.56;31.33;100912.31;5074147;28;20422;-66
2022/08/02 04:54:52;;;;;;;3.65;1.88;;;;;;;29.68;31.20;100907.25;5077784;28;20453;-66
2022/08/02 05:00:04;;;;;;;5.60;2.40;;;;;;;30.36;30.45;100907.94;5069421;28;20449;-67
2022/08/02 05:02:30;;;;;;;3.83;1.77;;;;;;;30.81;29.88;100910.97;5070551;28;20910;-65
2022/08/02 05:04:55;;;;;;;3.20;1.87;;;;;;;31.48;28.55;100911.63;5071748;28;20418;-67
2022/08/02 05:07:21;;;;;;;2.90;1.40;;;;;;;32.19;27.98;100918.28;5072618;28;20397;-67
2022/08/02 05:09:47;;;;;;;2.20;1.77;;;;;;;33.05;26.68;100916.38;5072754;28;20388;-67
2022/08/02 05:12:12;;;;;;;4.07;1.70;;;;;;;34.07;25.31;100922.75;5071337;28;20459;-68
2022/08/02 05:14:38;;;;;;;4.27;1.60;;;;;;;35.07;23.97;100915.25;5064632;28;20464;-67
2022/08/02 05:17:03;;;;;;;3.17;1.60;;;;;;;35.94;22.81;100908.41;5056512;28;20587;-67
2022/08/02 05:19:29;;;;;;;2.90;1.40;;;;;;;36.60;22.24;100909.56;5055290;28;20386;-67
2022/08/02 05:21:54;;;;;;;3.95;1.60;;;;;;;38.91;19.64;100918.81;5077095;28;20466;-69
2022/08/02 05:24:20;;;;;;;3.47;1.55;;;;;;;42.23;16.68;100906.84;5068692;28;20545;-67
2022/08/02 05:26:46;;;;;;;3.80;1.40;;;;;;;44.25;14.85;100895.75;5060131;28;20464;-66
2022/08/02 05:29:11;;;;;;;2.77;1.30;;;;;;;45.48;13.78;100890.03;5055580;28;20404;-68
2022/08/02 05:31:37;;;;;;;1.43;1.23;;;;;;;46.32;12.75;100887.16;5065432;28;20403;-65
2022/08/02 05:34:02;;;;;;;3.90;1.50;;;;;;;47.22;12.35;100889.19;5063994;28;20411;-66
2022/08/02 05:36:28;;;;;;;3.00;1.50;;;;;;;48.12;11.46;100895.59;5071102;28;20956;-67
2022/08/02 05:38:53;;;;;;;2.20;1.38;;;;;;;49.00;11.04;100891.69;5061893;28;20386;-67
2022/08/02 05:41:19;;;;;;;2.80;1.20;;;;;;;49.84;10.52;100889.56;5061368;28;20485;-66
2022/08/02 05:43:45;;;;;;;1.75;1.40;;;;;;;50.94;9.94;100889.28;5061637;28;20478;-67
2022/08/02 05:46:12;;;;;;;1.23;1.13;;;;;;;52.02;9.22;100886.88;5049849;28;20890;-66
2022/08/02 05:48:37;;;;;;;1.50;1.00;;;;;;;53.21;8.74;100889.19;5049860;28;20404;-67
2022/08/02 05:51:09;;;;;;;2.20;1.30;;;;;;;54.34;7.47;100884.31;5049263;28;20407;-65
2022/08/02 05:53:45;;;;;;;1.35;1.20;;;;;;;55.45;6.71;100880.56;5048895;28;20444;-66
2022/08/02 05:56:24;;;;;;;3.08;1.70;;;;;;;56.64;6.08;100890.47;5049032;28;20434;-67
2022/08/02 05:58:55;;;;;;;2.28;1.65;;;;;;;57.36;5.69;100872.31;5048397;28;20923;-69
2022/08/02 06:01:35;;;;;;;2.92;1.70;;;;;;;57.89;5.80;100881.16;5047648;28;20503;-67
2022/08/02 06:04:05;;;;;;;2.65;1.45;;;;;;;59.07;4.98;100873.94;5046697;28;20424;-67
2022/08/02 06:06:32;;;;;;;3.80;1.60;;;;;;;59.86;4.32;100874.50;5046451;28;20960;-65
2022/08/02 06:09:02;;;;;;;2.00;1.70;;;;;;;60.47;4.15;100877.34;5048135;28;20756;-66
2022/08/02 06:11:37;;;;;;;3.80;2.00;;;;;;;61.20;4.28;100871.69;5051634;28;20511;-66
2022/08/02 06:14:06;;;;;;;3.17;1.90;;;;;;;61.59;3.68;100879.44;5050593;28;20418;-67
2022/08/02 06:16:33;;;;;;;3.13;2.00;;;;;;;61.82;3.85;100876.50;5068400;28;20394;-66
2022/08/02 06:18:59;;;;;;;2.47;1.92;;;;;;;61.79;3.49;100877.53;5051542;28;20403;-67
2022/08/02 06:21:25;;;;;;;2.00;1.80;;;;;;;62.05;3.47;100868.59;5051252;28;20393;-66
2022/08/02 06:23:52;;;;;;;1.87;1.77;;;;;;;62.30;3.10;100872.38;5050549;28;20388;-66
2022/08/02 06:26:19;;;;;;;3.63;2.00;;;;;;;62.72;2.63;100876.03;5055818;28;20494;-66
2022/08/02 06:28:46;;;;;;;2.22;2.03;;;;;;;63.27;2.35;100873.25;5050564;28;20917;-66
2022/08/02 06:31:14;;;;;;;2.47;1.90;;;;;;;63.87;2.53;100878.06;5045276;28;20405;-67
2022/08/02 06:33:39;;;;;;;4.50;2.00;;;;;;;64.10;2.43;100878.56;5042814;28;20420;-67
2022/08/02 06:36:14;;;;;;;3.35;2.35;;;;;;;63.87;2.22;100880.16;5060678;28;20448;-66
2022/08/02 06:38:43;;;;;;;2.30;2.20;;;;;;;63.89;2.70;100878.28;5053820;28;20814;-66
2022/08/02 06:41:12;;;;;;;6.45;3.25;;;;;;;64.44;2.51;100883.84;5043592;28;20963;-72
2022/08/02 06:43:52;;;;;;;3.42;2.47;;;;;;;64.68;2.29;100877.16;5058820;28;20438;-67
2022/08/02 06:46:18;;;;;;;2.30;2.20;;;;;;;62.89;2.55;100878.78;5055145;28;20455;-67
2022/08/02 06:48:44;;;;;;;3.80;2.70;;;;;;;63.77;2.73;100879.72;5048218;28;20396;-67
2022/08/02 06:51:10;;;;;;;2.70;2.50;;;;;;;64.25;2.40;100868.66;5055635;28;21472;-66
2022/08/02 06:53:35;;;;;;;3.08;2.78;;;;;;;64.35;1.74;100876.34;5056567;28;20467;-66
2022/08/02 06:56:01;;;;;;;2.93;2.60;;;;;;;64.57;1.78;100874.44;5058724;28;20381;-67
2022/08/02 06:58:26;;;;;;;2.90;2.35;;;;;;;64.17;2.31;100866.41;5038492;28;20398;-67
2022/08/02 07:00:52;;;;;;;4.30;2.60;;;;;;;64.38;2.40;100873.72;5056857;28;20403;-66
2022/08/02 07:03:17;;;;;;;2.72;2.40;;;;;;;62.37;3.17;100865.28;5060522;28;20934;-67
2022/08/02 07:05:47;;;;;;;2.40;2.30;;;;;;;62.79;2.54;100854.56;5050502;28;20397;-67
2022/08/02 07:08:14;;;;;;;2.50;2.30;;;;;;;62.56;2.66;100857.59;5063393;28;20763;-68
2022/08/02 07:10:39;;;;;;;2.30;2.20;;;;;;;62.28;2.81;100858.56;5049899;28;20405;-65
2022/08/02 07:13:05;;;;;;;3.30;2.33;;;;;;;62.60;2.49;100863.06;5066642;28;20384;-67
2022/08/02 07:15:31;;;;;;;3.70;2.20;;;;;;;62.60;2.84;100863.84;5041854;28;20413;-67
2022/08/02 07:17:57;;;;;;;5.20;2.80;;;;;;;62.48;2.84;100856.63;5055438;28;20422;-67
2022/08/02 07:20:22;;;;;;;2.87;2.30;;;;;;;60.10;3.60;100852.50;5048236;28;20420;-67
2022/08/02 07:22:48;;;;;;;2.00;1.80;;;;;;;53.28;6.88;100871.94;5049968;28;20384;-66
2022/08/02 07:25:13;;;;;;;3.10;1.80;;;;;;;49.10;9.74;100878.69;5042736;28;20496;-67
2022/08/02 07:27:39;;;;;;;2.10;1.60;;;;;;;46.10;11.91;100892.16;5047378;28;20416;-68
2022/08/02 07:30:05;;;;;;;2.20;1.57;;;;;;;44.12;13.36;100896.47;5041905;28;20398;-64
2022/08/02 07:32:31;;;;;;;1.60;1.50;;;;;;;43.55;13.78;100894.31;5039111;28;20398;-66
2022/08/02 07:34:58;;;;;;;1.50;1.10;;;;;;;42.28;14.46;100898.13;5074310;28;20430;-67
2022/08/02 07:37:26;;;;;;;1.55;1.10;;;;;;;41.14;15.54;100898.28;5061367;28;20434;-66
2022/08/02 07:39:52;;;;;;;2.20;1.07;;;;;;;40.49;16.42;100896.44;5068749;28;20387;-66
2022/08/02 07:42:17;;;;;;;2.07;1.27;;;;;;;39.64;17.10;100902.69;5065125;28;20401;-67
2022/08/02 07:44:43;;;;;;;3.03;1.60;;;;;;;39.13;17.84;100908.25;5072762;28;20494;-67
2022/08/02 07:47:08;;;;;;;3.05;1.55;;;;;;;38.78;18.25;100914.53;5070383;28;20430;-68
2022/08/02 07:49:34;;;;;;;1.40;1.30;;;;;;;38.29;18.62;100914.81;5066662;28;20383;-66
2022/08/02 07:51:59;;;;;;;2.83;1.23;;;;;;;38.01;19.00;100910.88;5065998;28;20401;-68
2022/08/02 07:54:25;;;;;;;1.63;0.90;;;;;;;37.79;19.24;100908.66;5068109;28;20422;-68
2022/08/02 07:56:52;;;;;;;1.20;0.80;;;;;;;37.20;20.13;100908.03;5071738;28;20758;-67
2022/08/02 07:59:17;;;;;;;1.30;1.10;;;;;;;36.39;20.78;100909.63;5071807;28;20874;-67
2022/08/02 08:01:43;;;;;;;1.50;1.02;;;;;;;35.95;21.42;100918.31;5073722;28;20513;-67
2022/08/02 08:04:09;;;;;;;1.48;1.00;;;;;;;35.89;21.35;100905.84;5056912;28;20804;-67
2022/08/02 08:06:34;;;;;;;1.37;0.90;;;;;;;35.49;21.77;100903.53;5051724;28;20391;-67
2022/08/02 08:09:00;;;;;;;1.88;1.00;;;;;;;35.25;22.55;100904.97;5061842;28;20793;-70
2022/08/02 08:11:25;;;;;;;1.05;0.93;;;;;;;35.26;22.34;100909.38;5060655;28;20440;-66
2022/08/02 08:13:51;;;;;;;2.70;1.10;;;;;;;35.13;22.90;100913.13;5074509;28;20490;-66
2022/08/02 08:16:17;;;;;;;1.17;0.98;;;;;;;35.18;22.83;100904.66;5059248;28;20927;-66
2022/08/02 08:18:42;;;;;;;2.20;1.20;;;;;;;35.18;22.92;100901.91;5065056;28;20461;-68
2022/08/02 08:21:08;;;;;;;2.30;1.30;;;;;;;35.22;22.95;100909.22;5067775;28;20866;-67
2022/08/02 08:23:35;;;;;;;1.30;1.13;;;;;;;34.92;23.12;100911.13;5069953;28;20429;-68
2022/08/02 08:26:01;;;;;;;1.67;1.00;;;;;;;34.67;23.07;100912.81;5065101;28;20982;-67
2022/08/02 08:28:27;;;;;;;3.95;1.50;;;;;;;34.54;23.35;100906.38;5072906;28;20402;-68
2022/08/02 08:30:52;;;;;;;2.40;1.23;;;;;;;34.63;23.17;100920.09;5056273;28;20395;-67
2022/08/02 08:33:18;;;;;;;0.82;0.80;;;;;;;34.51;23.56;100911.72;5059442;28;20508;-66
2022/08/02 08:35:43;;;;;;;2.30;0.98;;;;;;;34.64;23.33;100913.44;5074808;28;20426;-66
2022/08/02 08:38:09;;;;;;;1.42;0.80;;;;;;;34.67;23.11;100908.09;5086231;28;20396;-66
2022/08/02 08:40:35;;;;;;;1.55;1.20;;;;;;;34.79;22.66;100892.84;5066720;28;20887;-67
2022/08/02 08:43:01;;;;;;;2.38;1.50;;;;;;;34.89;22.87;100900.75;5061567;28;20404;-64
2022/08/02 08:45:27;;;;;;;1.50;1.00;;;;;;;34.93;22.74;100901.69;5066420;28;20400;-66
2022/08/02 08:48:00;;;;;;;1.63;1.07;;;;;;;34.89;22.64;100903.50;5080753;28;20477;-67
2022/08/02 08:50:29;;;;;;;1.40;1.00;;;;;;;34.93;22.70;100904.44;5068996;28;20896;-68
2022/08/02 08:53:03;;;;;;;3.17;0.80;;;;;;;34.97;22.31;100904.59;5055322;28;20395;-66
2022/08/02 08:55:30;;;;;;;1.10;0.70;;;;;;;35.00;22.13;100902.00;5060103;28;20409;-67
2022/08/02 08:57:59;;;;;;;1.60;1.15;;;;;;;35.03;22.45;100900.53;5046056;28;20443;-67
2022/08/02 09:00:26;;;;;;;1.20;0.90;;;;;;;35.09;22.90;100899.19;5066777;28;20506;-68
2022/08/02 09:02:51;;;;;;;2.55;1.00;;;;;;;35.08;22.57;100889.34;5050705;28;20422;-68
2022/08/02 09:05:17;;;;;;;2.87;0.93;;;;;;;35.10;22.60;100905.53;5065231;28;20785;-67
2022/08/02 09:07:46;;;;;;;1.80;0.80;;;;;;;35.02;22.57;100894.22;5077387;28;20385;-68
2022/08/02 09:10:39;;;;;;;1.63;0.70;;;;;;;35.03;21.94;100897.78;5072562;28;20772;-67
2022/08/02 09:13:31;;;;;;;1.20;0.70;;;;;;;34.98;21.92;100901.53;5078045;28;20386;-67
2022/08/02 09:16:02;;;;;;;2.50;2.10;;;;;;;34.73;21.79;100889.47;5061117;28;20418;-67
2022/08/02 09:18:29;;;;;;;1.30;0.60;;;;;;;34.40;22.10;100887.28;5069161;28;20480;-66
2022/08/02 09:20:59;;;;;;;1.00;0.90;;;;;;;34.33;22.23;100886.19;5070572;28;20381;-67
2022/08/02 09:23:32;;;;;;;3.07;0.93;;;;;;;34.37;22.61;100884.38;5071615;28;20379;-67
2022/08/02 09:26:00;;;;;;;1.30;0.90;;;;;;;34.38;22.06;100886.81;5071980;28;20371;-67
2022/08/02 09:28:31;;;;;;;0.83;0.73;;;;;;;34.35;22.14;100881.16;5076572;28;20392;-66
2022/08/02 09:31:22;;;;;;;0.80;0.60;;;;;;;33.92;22.42;100885.53;5075893;28;20385;-67
2022/08/02 09:33:53;;;;;;;2.00;0.60;;;;;;;33.80;22.54;100883.44;5069242;28;20838;-65
2022/08/02 09:36:19;;;;;;;0.60;0.60;;;;;;;33.82;22.53;100886.69;5075173;28;20395;-67
2022/08/02 09:39:15;;;;;;;0.85;0.60;;;;;;;33.86;22.63;100890.41;5072960;28;20562;-67
2022/08/02 09:41:43;;;;;;;1.60;0.75;;;;;;;33.75;22.89;100877.31;5070720;28;20961;-68
2022/08/02 09:44:10;;;;;;;1.50;0.60;;;;;;;33.67;22.74;100884.41;5068965;28;20399;-67
2022/08/02 09:46:44;;;;;;;1.30;0.85;;;;;;;33.71;22.99;100877.94;5070634;28;20397;-67
2022/08/02 09:49:11;;;;;;;1.80;0.60;;;;;;;33.82;22.83;100877.63;5066320;28;20404;-66
2022/08/02 09:51:46;;;;;;;1.27;1.17;;;;;;;34.00;22.59;100873.72;5075312;28;20374;-66
2022/08/02 09:54:19;;;;;;;0.90;0.68;;;;;;;34.08;22.33;100864.66;5070487;28;20452;-67
2022/08/02 09:56:50;;;;;;;1.20;0.80;;;;;;;34.18;22.27;100871.81;5067361;28;20375;-66
2022/08/02 09:59:18;;;;;;;2.80;0.93;;;;;;;34.31;21.86;100869.19;5067090;28;20971;-67
2022/08/02 10:01:46;;;;;;;1.48;0.80;;;;;;;34.37;22.18;100863.16;5063358;28;20452;-66
2022/08/02 10:04:13;;;;;;;0.70;0.70;;;;;;;34.42;21.62;100865.75;5069862;28;20477;-67
2022/08/02 10:06:42;;;;;;;1.52;0.63;;;;;;;34.33;21.55;100859.47;5064878;28;20418;-67
2022/08/02 10:09:09;;;;;;;1.90;1.50;;;;;;;34.24;21.86;100853.97;5066570;28;20410;-66
2022/08/02 10:11:35;;;;;;;1.70;0.90;;;;;;;34.37;21.99;100856.84;5071532;28;20385;-68
2022/08/02 10:14:05;;;;;;;1.27;0.70;;;;;;;34.41;21.86;100846.81;5065304;28;20411;-68
2022/08/02 10:16:33;;;;;;;1.65;1.35;;;;;;;34.22;22.01;100850.75;5056076;28;20403;-67
2022/08/02 10:19:01;;;;;;;2.47;2.28;;;;;;;34.09;21.61;100848.97;5081498;28;20847;-67
2022/08/02 10:21:32;;;;;;;1.85;1.73;;;;;;;33.94;21.73;100849.47;5073037;28;20922;-68
2022/08/02 10:24:07;;;;;;;0.80;0.60;;;;;;;34.02;21.91;100849.47;5066023;28;20912;-67
2022/08/02 10:26:33;;;;;;;0.67;0.67;;;;;;;34.11;21.65;100841.19;5068664;28;20776;-65
2022/08/02 10:29:00;;;;;;;2.17;0.63;;;;;;;34.15;21.73;100846.84;5064665;28;20479;-67
2022/08/02 10:31:54;;;;;;;1.00;0.85;;;;;;;33.90;21.59;100841.06;5062483;28;20399;-66
2022/08/02 10:34:29;;;;;;;0.90;0.60;;;;;;;33.61;21.76;100837.00;5048849;28;20429;-66
2022/08/02 10:36:56;;;;;;;1.10;0.63;;;;;;;33.71;22.56;100838.66;5069043;28;20406;-67
2022/08/02 10:39:21;;;;;;;1.85;0.80;;;;;;;33.83;22.53;100829.72;5067435;28;20416;-65
2022/08/02 10:41:51;;;;;;;0.90;0.60;;;;;;;33.93;21.88;100831.38;5071588;28;20420;-67
2022/08/02 10:44:26;;;;;;;4.25;1.08;;;;;;;34.04;21.38;100818.88;5064713;28;20458;-67
2022/08/02 10:47:12;;;;;;;0.82;0.73;;;;;;;34.11;22.03;100826.63;5065806;28;20387;-67
2022/08/02 10:49:47;;;;;;;1.05;0.80;;;;;;;34.07;22.46;100819.03;5053956;28;20780;-67
2022/08/02 10:52:13;;;;;;;0.55;0.55;;;;;;;34.09;21.91;100821.47;5051525;28;20387;-67
2022/08/02 10:54:46;;;;;;;1.33;0.50;;;;;;;34.18;21.75;100816.78;5051413;28;20507;-67
2022/08/02 10:57:18;;;;;;;0.75;0.52;;;;;;;34.20;21.56;100817.25;5065746;28;20418;-67
2022/08/02 10:59:44;;;;;;;0.70;0.70;;;;;;;34.17;21.47;100809.59;5055271;28;20512;-67
2022/08/02 11:02:10;;;;;;;0.70;0.60;;;;;;;33.96;21.66;100820.53;5050870;28;20499;-67
2022/08/02 11:04:36;;;;;;;0.80;0.80;;;;;;;33.86;21.65;100804.34;5064166;28;20394;-67
2022/08/02 11:07:18;;;;;;;1.00;0.70;;;;;;;33.96;21.21;100808.69;5056073;28;20398;-67
2022/08/02 11:09:45;;;;;;;0.90;0.60;;;;;;;33.89;21.62;100807.25;5051134;28;20392;-67
2022/08/02 11:12:17;;;;;;;0.85;0.40;;;;;;;33.80;21.16;100808.38;5054537;28;20473;-68
2022/08/02 11:14:45;;;;;;;1.83;0.60;;;;;;;33.52;22.09;100801.25;5091564;28;20496;-67
2022/08/02 11:17:16;;;;;;;0.50;0.50;;;;;;;33.30;22.73;100793.97;5067420;28;20456;-66
2022/08/02 11:20:09;;;;;;;0.68;0.60;;;;;;;33.11;22.67;100798.94;5070959;28;20375;-66
2022/08/02 11:22:35;;;;;;;0.85;0.60;;;;;;;32.98;22.82;100792.44;5070905;28;20880;-67
2022/08/02 11:25:25;;;;;;;0.55;0.52;;;;;;;32.91;23.34;100787.41;5067545;28;20417;-67
2022/08/02 11:27:53;;;;;;;0.80;0.60;;;;;;;32.89;23.56;100797.91;5054096;28;20396;-67
2022/08/02 11:30:19;;;;;;;1.02;0.70;;;;;;;32.89;23.80;100786.13;5050819;28;20426;-65
2022/08/02 11:32:45;;;;;;;1.00;0.60;;;;;;;32.90;23.46;100787.72;5053200;28;20789;-66
2022/08/02 11:35:11;;;;;;;0.80;0.60;;;;;;;32.91;23.76;100792.91;5051614;28;20424;-67
2022/08/02 11:40:09;;;;;;;0.88;0.55;;;;;;;32.73;23.37;100783.00;5049817;28;20463;-67
2022/08/02 11:42:41;;;;;;;1.20;0.40;;;;;;;32.63;23.25;100775.06;5052939;28;20415;-67
2022/08/02 11:45:08;;;;;;;1.02;0.60;;;;;;;32.73;23.83;100774.78;5052830;28;20411;-68
2022/08/02 11:47:45;;;;;;;0.50;0.50;;;;;;;32.69;23.46;100765.56;5041595;28;20404;-67
2022/08/02 11:50:11;;;;;;;1.10;0.52;;;;;;;32.71;23.45;100779.78;5043069;28;20491;-67